createdAt,value
2019-04-14T00:01:06.424Z,76.47
2019-04-14T00:03:45.353Z,76.46
2019-04-14T00:06:14.416Z,76.33
2019-04-14T00:08:43.741Z,76.31
2019-04-14T00:11:12.725Z,75.96
2019-04-14T00:13:41.601Z,76.51
2019-04-14T00:16:10.211Z,76.69
2019-04-14T00:18:40.357Z,76.56
2019-04-14T00:21:10.778Z,76.31
2019-04-14T00:23:41.244Z,76.31
2019-04-14T00:26:27.341Z,75.93
2019-04-14T00:28:57.913Z,75.57
2019-04-14T00:31:26.948Z,75.30
2019-04-14T00:33:58.564Z,75.37
2019-04-14T00:36:37.308Z,75.38
2019-04-14T00:39:16.230Z,75.45
2019-04-14T00:42:06.719Z,75.34
2019-04-14T00:45:04.779Z,75.54
2019-04-14T00:47:49.747Z,75.57
2019-04-14T00:50:08.019Z,75.70
2019-04-14T00:52:37.257Z,75.30
2019-04-14T00:55:07.574Z,75.39
2019-04-14T00:57:37.658Z,74.83
2019-04-14T01:00:08.116Z,74.87
2019-04-14T01:02:36.921Z,74.94
2019-04-14T01:05:06.623Z,74.82
2019-04-14T01:07:35.537Z,74.41
2019-04-14T01:10:04.558Z,74.93
2019-04-14T01:12:34.180Z,74.78
2019-04-14T01:15:03.172Z,75.10
2019-04-14T01:17:32.964Z,75.14
2019-04-14T01:20:01.786Z,74.97
2019-04-14T01:22:31.474Z,74.79
2019-04-14T01:25:00.142Z,74.77
2019-04-14T01:27:29.838Z,74.58
2019-04-14T01:29:58.547Z,74.73
2019-04-14T01:32:28.343Z,75.12
2019-04-14T01:34:58.817Z,75.00
2019-04-14T01:37:28.976Z,75.06
2019-04-14T01:39:58.833Z,75.29
2019-04-14T01:42:28.935Z,75.70
2019-04-14T01:44:59.168Z,75.64
2019-04-14T01:47:29.201Z,75.43
2019-04-14T01:49:57.925Z,75.81
2019-04-14T01:52:54.845Z,75.97
2019-04-14T01:55:42.297Z,76.15
2019-04-14T01:58:16.988Z,75.73
2019-04-14T02:00:51.609Z,76.23
2019-04-14T02:03:21.390Z,76.47
2019-04-14T02:05:51.753Z,76.17
2019-04-14T02:08:21.972Z,76.43
2019-04-14T02:10:52.033Z,76.72
2019-04-14T02:13:20.896Z,76.43
2019-04-14T02:15:50.650Z,76.68
2019-04-14T02:18:20.747Z,77.01
2019-04-14T02:20:49.500Z,76.94
2019-04-14T02:23:19.231Z,77.51
2019-04-14T02:25:49.260Z,77.60
2019-04-14T02:28:19.806Z,77.71
2019-04-14T02:31:00.155Z,77.53
2019-04-14T02:33:44.341Z,77.82
2019-04-14T02:36:21.978Z,77.75
2019-04-14T02:41:18.867Z,78.34
2019-04-14T02:43:51.451Z,78.04
2019-04-14T02:48:52.229Z,78.14
2019-04-14T02:51:19.417Z,77.92
2019-04-14T02:56:24.941Z,78.10
2019-04-14T02:58:55.215Z,78.18
2019-04-14T03:01:24.197Z,77.69
2019-04-14T03:03:50.758Z,77.67
2019-04-14T03:06:17.806Z,77.65
2019-04-14T03:08:59.112Z,77.56
2019-04-14T03:11:28.502Z,77.64
2019-04-14T03:13:51.461Z,77.79
2019-04-14T03:16:29.788Z,77.74
2019-04-14T03:19:18.309Z,77.93
2019-04-14T03:22:12.491Z,77.97
2019-04-14T03:24:35.841Z,78.00
2019-04-14T03:27:43.840Z,78.09
2019-04-14T03:30:39.523Z,78.15
2019-04-14T03:33:14.233Z,78.40
2019-04-14T03:37:59.482Z,78.75
2019-04-14T03:40:21.702Z,78.93
2019-04-14T03:42:54.273Z,78.97
2019-04-14T03:45:28.184Z,79.08
2019-04-14T03:48:00.630Z,79.34
2019-04-14T03:52:59.304Z,79.41
2019-04-14T03:55:11.345Z,79.64
2019-04-14T03:57:27.101Z,79.72
2019-04-14T03:59:56.281Z,79.37
2019-04-14T04:02:25.250Z,79.52
2019-04-14T04:04:53.878Z,79.71
2019-04-14T04:07:23.562Z,79.93
2019-04-14T04:10:05.108Z,79.84
2019-04-14T04:12:34.179Z,79.99
2019-04-14T04:15:03.941Z,79.96
2019-04-14T04:17:47.800Z,80.31
2019-04-14T04:20:34.968Z,80.31
2019-04-14T04:23:29.174Z,80.34
2019-04-14T04:26:13.109Z,80.52
2019-04-14T04:29:13.611Z,80.45
2019-04-14T04:32:04.061Z,80.66
2019-04-14T04:34:44.589Z,80.68
2019-04-14T04:37:45.451Z,80.86
2019-04-14T04:40:20.101Z,80.68
2019-04-14T04:42:50.434Z,81.13
2019-04-14T04:45:19.616Z,81.24
2019-04-14T04:47:49.192Z,81.33
2019-04-14T04:50:19.331Z,81.56
2019-04-14T04:52:49.656Z,81.62
2019-04-14T04:55:19.828Z,81.66
2019-04-14T04:57:48.734Z,81.69
2019-04-14T05:00:18.013Z,81.96
2019-04-14T05:02:48.410Z,81.83
2019-04-14T05:05:53.676Z,81.69
2019-04-14T05:08:24.044Z,81.99
2019-04-14T05:10:58.932Z,81.54
2019-04-14T05:13:40.189Z,81.54
2019-04-14T05:16:10.651Z,81.74
2019-04-14T05:18:39.871Z,81.93
2019-04-14T05:21:10.405Z,81.88
2019-04-14T05:23:39.364Z,81.82
2019-04-14T05:26:09.190Z,81.61
2019-04-14T05:28:37.960Z,81.17
2019-04-14T05:31:07.634Z,81.11
2019-04-14T05:33:36.569Z,81.11
2019-04-14T05:36:06.346Z,80.98
2019-04-14T05:38:36.905Z,81.14
2019-04-14T05:41:06.865Z,80.94
2019-04-14T05:43:45.010Z,80.75
2019-04-14T05:46:07.743Z,80.51
2019-04-14T05:48:36.659Z,80.51
2019-04-14T05:51:06.412Z,80.47
2019-04-14T05:53:35.503Z,80.63
2019-04-14T05:56:05.650Z,80.63
2019-04-14T05:58:34.696Z,80.57
2019-04-14T06:01:04.769Z,80.74
2019-04-14T06:03:34.228Z,80.54
2019-04-14T06:06:03.228Z,80.54
2019-04-14T06:08:32.676Z,81.05
2019-04-14T06:11:01.549Z,81.05
2019-04-14T06:13:30.463Z,81.64
2019-04-14T06:15:59.406Z,82.33
2019-04-14T06:18:34.433Z,83.08
2019-04-14T06:21:08.134Z,84.42
2019-04-14T06:23:37.108Z,84.42
2019-04-14T06:26:06.047Z,84.77
2019-04-14T06:28:35.155Z,85.35
2019-04-14T06:31:17.001Z,85.83
2019-04-14T06:34:05.230Z,85.83
2019-04-14T06:36:52.915Z,85.38
2019-04-14T06:39:30.284Z,86.37
2019-04-14T06:41:59.511Z,86.37
2019-04-14T06:44:28.128Z,86.62
2019-04-14T06:46:57.127Z,87.09
2019-04-14T06:49:25.849Z,86.40
2019-04-14T06:51:54.780Z,86.34
2019-04-14T06:54:23.908Z,86.07
2019-04-14T06:56:52.799Z,86.07
2019-04-14T06:59:21.549Z,87.32
2019-04-14T07:01:50.949Z,87.75
2019-04-14T07:04:20.092Z,87.77
2019-04-14T07:06:51.315Z,87.77
2019-04-14T07:09:19.547Z,87.90
2019-04-14T07:11:48.522Z,88.11
2019-04-14T07:14:17.389Z,87.73
2019-04-14T07:16:46.694Z,87.88
2019-04-14T07:19:15.364Z,87.66
2019-04-14T07:21:44.253Z,87.84
2019-04-14T07:24:13.368Z,88.24
2019-04-14T07:26:42.394Z,87.88
2019-04-14T07:29:11.540Z,87.68
2019-04-14T07:32:02.319Z,88.24
2019-04-14T07:34:59.366Z,86.83
2019-04-14T07:37:46.465Z,86.48
2019-04-14T07:40:39.935Z,86.48
2019-04-14T07:43:30.636Z,86.89
2019-04-14T07:46:27.586Z,86.36
2019-04-14T07:49:03.134Z,86.36
2019-04-14T07:51:54.151Z,86.86
2019-04-14T07:54:34.920Z,86.16
2019-04-14T07:57:19.668Z,85.39
2019-04-14T08:00:02.289Z,85.13
2019-04-14T08:02:52.813Z,84.97
2019-04-14T08:05:27.001Z,85.38
2019-04-14T08:07:55.682Z,85.14
2019-04-14T08:10:24.309Z,85.16
2019-04-14T08:12:53.944Z,84.90
2019-04-14T08:15:23.083Z,84.90
2019-04-14T08:17:51.964Z,83.93
2019-04-14T08:20:27.423Z,83.93
2019-04-14T08:22:51.484Z,84.52
2019-04-14T08:25:20.378Z,83.92
2019-04-14T08:27:49.239Z,84.06
2019-04-14T08:30:18.501Z,84.07
2019-04-14T08:32:47.149Z,82.87
2019-04-14T08:35:16.015Z,82.82
2019-04-14T08:37:45.177Z,82.43
2019-04-14T08:40:13.853Z,81.50
2019-04-14T08:43:17.112Z,81.63
2019-04-14T08:46:03.213Z,80.95
2019-04-14T08:48:50.616Z,79.30
2019-04-14T08:51:23.361Z,79.30
2019-04-14T08:53:59.155Z,79.40
2019-04-14T08:56:37.000Z,79.18
2019-04-14T08:59:30.699Z,80.08
2019-04-14T09:02:11.325Z,80.79
2019-04-14T09:05:11.559Z,81.12
2019-04-14T09:07:50.156Z,82.07
2019-04-14T09:10:22.734Z,80.72
2019-04-14T09:12:53.147Z,80.71
2019-04-14T09:15:24.836Z,81.01
2019-04-14T09:17:53.667Z,80.22
2019-04-14T09:20:24.995Z,78.92
2019-04-14T09:22:53.641Z,77.33
2019-04-14T09:25:22.503Z,75.34
2019-04-14T09:27:51.633Z,76.28
2019-04-14T09:30:20.372Z,74.81
2019-04-14T09:32:49.298Z,76.29
2019-04-14T09:35:17.898Z,77.69
2019-04-14T09:37:46.785Z,77.72
2019-04-14T09:40:15.475Z,78.30
2019-04-14T09:42:44.345Z,75.58
2019-04-14T09:45:13.317Z,75.20
2019-04-14T09:47:42.389Z,72.79
2019-04-14T09:50:11.406Z,72.30
2019-04-14T09:52:40.336Z,70.27
2019-04-14T09:55:09.024Z,70.22
2019-04-14T09:57:38.129Z,70.22
2019-04-14T10:00:08.470Z,69.63
2019-04-14T10:02:37.171Z,70.46
2019-04-14T10:05:06.083Z,70.04
2019-04-14T10:07:34.958Z,69.63
2019-04-14T10:10:05.387Z,66.00
2019-04-14T10:12:34.260Z,66.00
2019-04-14T10:15:03.146Z,66.27
2019-04-14T10:17:31.770Z,66.41
2019-04-14T10:20:00.674Z,66.82
2019-04-14T10:22:34.292Z,66.99
2019-04-14T10:25:00.390Z,66.07
2019-04-14T10:27:29.125Z,67.04
2019-04-14T10:29:57.752Z,67.68
2019-04-14T10:32:26.353Z,67.53
2019-04-14T10:34:55.469Z,67.86
2019-04-14T10:37:24.392Z,67.24
2019-04-14T10:39:53.226Z,67.24
2019-04-14T10:42:22.365Z,67.26
2019-04-14T10:44:51.439Z,67.26
2019-04-14T10:47:20.081Z,67.02
2019-04-14T10:49:49.012Z,65.73
2019-04-14T10:52:17.865Z,65.89
2019-04-14T10:54:46.715Z,65.89
2019-04-14T10:57:15.690Z,65.36
2019-04-14T10:59:44.775Z,66.06
2019-04-14T11:02:13.660Z,64.93
2019-04-14T11:04:42.304Z,64.32
2019-04-14T11:07:15.428Z,64.00
2019-04-14T11:09:44.414Z,63.09
2019-04-14T11:12:13.039Z,63.18
2019-04-14T11:14:42.037Z,62.89
2019-04-14T11:17:10.926Z,62.98
2019-04-14T11:19:39.646Z,61.57
2019-04-14T11:22:08.703Z,61.19
2019-04-14T11:24:37.557Z,60.68
2019-04-14T11:27:06.443Z,59.13
2019-04-14T11:29:35.785Z,56.57
2019-04-14T11:32:28.731Z,55.91
2019-04-14T11:35:12.057Z,55.29
2019-04-14T11:37:58.435Z,53.29
2019-04-14T11:40:30.433Z,52.51
2019-04-14T11:42:59.078Z,50.97
2019-04-14T11:45:27.708Z,49.51
2019-04-14T11:47:56.583Z,50.21
2019-04-14T11:50:25.459Z,50.17
2019-04-14T11:52:54.403Z,50.39
2019-04-14T11:55:23.842Z,49.72
2019-04-14T11:57:52.712Z,48.13
2019-04-14T12:00:39.284Z,48.38
2019-04-14T12:03:23.834Z,48.17
2019-04-14T12:06:17.709Z,47.41
2019-04-14T12:08:51.157Z,47.38
2019-04-14T12:11:19.775Z,47.51
2019-04-14T12:13:48.996Z,47.81
2019-04-14T12:16:17.886Z,48.16
2019-04-14T12:18:46.554Z,48.91
2019-04-14T12:21:15.502Z,48.52
2019-04-14T12:23:44.102Z,48.66
2019-04-14T12:26:12.729Z,49.96
2019-04-14T12:28:42.647Z,50.38
2019-04-14T12:31:13.002Z,51.69
2019-04-14T12:33:42.013Z,50.89
2019-04-14T12:36:12.868Z,51.74
2019-04-14T12:38:41.570Z,51.08
2019-04-14T12:41:15.376Z,52.81
2019-04-14T12:44:12.002Z,53.28
2019-04-14T12:46:47.639Z,51.91
2019-04-14T12:49:22.763Z,50.14
2019-04-14T12:52:20.543Z,50.89
2019-04-14T12:54:40.661Z,48.88
2019-04-14T12:57:09.523Z,49.75
2019-04-14T12:59:38.637Z,48.96
2019-04-14T13:02:32.793Z,48.45
2019-04-14T13:05:01.707Z,49.24
2019-04-14T13:07:30.569Z,50.72
2019-04-14T13:09:59.439Z,49.10
2019-04-14T13:12:28.430Z,47.83
2019-04-14T13:14:57.311Z,47.79
2019-04-14T13:17:26.204Z,46.79
2019-04-14T13:19:55.402Z,47.93
2019-04-14T13:22:33.688Z,46.48
2019-04-14T13:24:54.901Z,44.77
2019-04-14T13:27:23.528Z,43.53
2019-04-14T13:29:52.608Z,43.20
2019-04-14T13:32:21.506Z,43.83
2019-04-14T13:34:50.340Z,43.68
2019-04-14T13:37:18.973Z,44.57
2019-04-14T13:39:47.751Z,43.83
2019-04-14T13:42:16.612Z,44.58
2019-04-14T13:44:45.471Z,42.83
2019-04-14T13:47:14.352Z,42.91
2019-04-14T13:49:43.504Z,43.57
2019-04-14T13:52:12.440Z,44.03
2019-04-14T13:54:41.565Z,43.70
2019-04-14T13:57:10.685Z,43.86
2019-04-14T13:59:39.545Z,44.63
2019-04-14T14:02:08.192Z,46.31
2019-04-14T14:04:37.024Z,46.00
2019-04-14T14:07:06.551Z,46.19
2019-04-14T14:09:35.451Z,45.88
2019-04-14T14:12:13.840Z,45.53
2019-04-14T14:15:09.837Z,47.42
2019-04-14T14:17:43.931Z,48.13
2019-04-14T14:20:16.993Z,49.99
2019-04-14T14:23:00.097Z,50.04
2019-04-14T14:25:33.465Z,50.93
2019-04-14T14:28:02.599Z,50.99
2019-04-14T14:30:31.545Z,50.38
2019-04-14T14:33:00.263Z,50.78
2019-04-14T14:35:29.556Z,51.49
2019-04-14T14:37:58.192Z,50.93
2019-04-14T14:40:26.877Z,51.34
2019-04-14T14:42:55.972Z,51.48
2019-04-14T14:45:37.463Z,51.72
2019-04-14T14:48:15.570Z,52.92
2019-04-14T14:50:58.180Z,53.33
2019-04-14T14:53:27.330Z,53.91
2019-04-14T14:55:56.198Z,53.91
2019-04-14T14:58:25.100Z,54.23
2019-04-14T15:00:54.134Z,53.95
2019-04-14T15:03:23.042Z,53.70
2019-04-14T15:05:52.162Z,53.03
2019-04-14T15:08:21.109Z,52.23
2019-04-14T15:10:49.745Z,52.31
2019-04-14T15:13:18.914Z,53.32
2019-04-14T15:15:47.797Z,52.35
2019-04-14T15:18:16.563Z,52.29
2019-04-14T15:20:45.594Z,52.69
2019-04-14T15:23:24.234Z,52.37
2019-04-14T15:25:45.196Z,51.88
2019-04-14T15:28:15.742Z,51.23
2019-04-14T15:30:44.479Z,50.36
2019-04-14T15:33:13.327Z,49.72
2019-04-14T15:35:42.274Z,48.86
2019-04-14T15:38:11.184Z,48.61
2019-04-14T15:40:39.795Z,49.08
2019-04-14T15:43:08.646Z,49.32
2019-04-14T15:45:37.327Z,49.20
2019-04-14T15:48:06.572Z,49.87
2019-04-14T15:50:35.414Z,50.27
2019-04-14T15:53:04.044Z,50.82
2019-04-14T15:55:32.958Z,51.30
2019-04-14T15:58:09.951Z,51.73
2019-04-14T16:00:56.456Z,50.44
2019-04-14T16:03:30.584Z,51.17
2019-04-14T16:06:24.770Z,52.00
2019-04-14T16:09:00.858Z,52.83
2019-04-14T16:11:39.928Z,54.39
2019-04-14T16:14:24.014Z,54.53
2019-04-14T16:17:10.855Z,54.15
2019-04-14T16:19:45.874Z,54.43
2019-04-14T16:22:14.502Z,54.27
2019-04-14T16:24:43.651Z,53.67
2019-04-14T16:27:46.640Z,53.62
2019-04-14T16:30:24.812Z,53.01
2019-04-14T16:33:04.762Z,53.05
2019-04-14T16:35:33.614Z,53.24
2019-04-14T16:38:02.552Z,53.53
2019-04-14T16:40:31.178Z,53.75
2019-04-14T16:43:00.163Z,54.00
2019-04-14T16:45:31.799Z,54.24
2019-04-14T16:48:00.712Z,54.27
2019-04-14T16:50:29.647Z,54.76
2019-04-14T16:53:07.525Z,55.23
2019-04-14T16:56:01.558Z,55.34
2019-04-14T16:58:50.758Z,55.35
2019-04-14T17:01:38.408Z,55.30
2019-04-14T17:04:07.251Z,55.12
2019-04-14T17:06:36.376Z,55.33
2019-04-14T17:09:07.373Z,54.67
2019-04-14T17:11:36.470Z,54.73
2019-04-14T17:14:13.415Z,54.63
2019-04-14T17:17:05.048Z,53.35
2019-04-14T17:19:57.334Z,53.35
2019-04-14T17:22:35.769Z,53.50
2019-04-14T17:25:12.834Z,53.80
2019-04-14T17:27:50.586Z,53.54
2019-04-14T17:30:32.831Z,53.54
2019-04-14T17:33:11.271Z,54.55
2019-04-14T17:35:57.654Z,54.22
2019-04-14T17:38:32.051Z,53.35
2019-04-14T17:41:19.782Z,53.74
2019-04-14T17:44:04.348Z,54.41
2019-04-14T17:46:58.897Z,54.78
2019-04-14T17:49:43.240Z,55.40
2019-04-14T17:52:29.841Z,55.61
2019-04-14T17:55:08.984Z,56.14
2019-04-14T17:57:55.543Z,56.65
2019-04-14T18:00:35.662Z,56.65
2019-04-14T18:03:22.507Z,57.50
2019-04-14T18:05:57.644Z,57.35
2019-04-14T18:08:36.420Z,57.55
2019-04-14T18:11:28.395Z,57.75
2019-04-14T18:14:10.204Z,57.55
2019-04-14T18:16:47.520Z,57.90
2019-04-14T18:19:34.065Z,58.42
2019-04-14T18:22:03.188Z,59.38
2019-04-14T18:24:41.572Z,59.38
2019-04-14T18:27:02.683Z,59.13
2019-04-14T18:29:42.550Z,59.53
2019-04-14T18:32:16.351Z,59.51
2019-04-14T18:34:52.477Z,59.40
2019-04-14T18:37:30.094Z,59.17
2019-04-14T18:40:16.667Z,59.30
2019-04-14T18:42:52.140Z,59.15
2019-04-14T18:45:39.507Z,59.51
2019-04-14T18:48:36.163Z,59.53
2019-04-14T18:51:11.854Z,59.62
2019-04-14T18:54:08.782Z,59.56
2019-04-14T18:57:02.593Z,59.77
2019-04-14T18:59:44.423Z,59.74
2019-04-14T19:02:14.830Z,59.83
2019-04-14T19:04:43.949Z,59.74
2019-04-14T19:07:12.553Z,59.84
2019-04-14T19:09:41.485Z,59.79
2019-04-14T19:12:28.016Z,59.97
2019-04-14T19:15:03.947Z,60.17
2019-04-14T19:17:43.974Z,60.42
2019-04-14T19:20:13.771Z,60.36
2019-04-14T19:22:42.384Z,60.44
2019-04-14T19:25:11.367Z,60.86
2019-04-14T19:27:42.409Z,61.12
2019-04-14T19:30:11.163Z,61.40
2019-04-14T19:32:40.122Z,61.70
2019-04-14T19:35:09.079Z,61.89
2019-04-14T19:37:37.938Z,62.21
2019-04-14T19:40:07.543Z,62.88
2019-04-14T19:42:36.276Z,62.82
2019-04-14T19:45:05.802Z,62.99
2019-04-14T19:47:34.665Z,63.19
2019-04-14T19:50:03.373Z,63.52
2019-04-14T19:52:32.386Z,63.74
2019-04-14T19:55:01.304Z,64.49
2019-04-14T19:57:30.392Z,64.49
2019-04-14T19:59:59.243Z,64.47
2019-04-14T20:02:28.135Z,64.51
2019-04-14T20:04:56.728Z,64.51
2019-04-14T20:07:25.639Z,64.91
2019-04-14T20:09:54.265Z,65.19
2019-04-14T20:12:23.108Z,67.32
2019-04-14T20:14:52.336Z,67.32
2019-04-14T20:17:31.605Z,65.60
2019-04-14T20:20:18.335Z,65.99
2019-04-14T20:23:05.725Z,65.99
2019-04-14T20:26:05.998Z,65.71
2019-04-14T20:28:42.578Z,66.62
2019-04-14T20:31:24.642Z,66.62
2019-04-14T20:33:53.578Z,66.79
2019-04-14T20:36:22.465Z,66.97
2019-04-14T20:38:51.396Z,67.35
2019-04-14T20:41:20.272Z,68.14
2019-04-14T20:43:49.407Z,68.14
2019-04-14T20:46:20.476Z,68.09
2019-04-14T20:48:49.372Z,68.54
2019-04-14T20:51:18.090Z,68.74
2019-04-14T20:53:47.318Z,68.88
2019-04-14T20:56:16.024Z,68.88
2019-04-14T20:58:44.731Z,69.70
2019-04-14T21:01:13.773Z,69.70
2019-04-14T21:04:07.265Z,70.43
2019-04-14T21:06:56.043Z,70.56
2019-04-14T21:09:31.651Z,70.90
2019-04-14T21:12:22.571Z,70.90
2019-04-14T21:15:13.577Z,71.17
2019-04-14T21:17:49.007Z,72.27
2019-04-14T21:20:25.995Z,72.27
2019-04-14T21:23:14.418Z,71.92
2019-04-14T21:26:00.271Z,72.35
2019-04-14T21:28:36.771Z,72.77
2019-04-14T21:31:27.674Z,73.06
2019-04-14T21:34:21.722Z,73.06
2019-04-14T21:37:15.508Z,72.86
2019-04-14T21:40:06.184Z,73.31
2019-04-14T21:42:34.799Z,73.11
2019-04-14T21:45:04.028Z,73.11
2019-04-14T21:47:32.710Z,73.67
2019-04-14T21:50:01.806Z,74.42
2019-04-14T21:52:39.889Z,74.78
2019-04-14T21:55:08.785Z,74.78
2019-04-14T21:57:45.052Z,74.97
2019-04-14T22:00:39.793Z,74.63
2019-04-14T22:03:27.696Z,75.28
2019-04-14T22:06:05.953Z,75.78
2019-04-14T22:08:38.489Z,76.11
2019-04-14T22:11:08.793Z,76.36
2019-04-14T22:13:37.734Z,76.70
2019-04-14T22:16:06.454Z,76.65
2019-04-14T22:18:35.594Z,76.88
2019-04-14T22:21:04.335Z,77.14
2019-04-14T22:23:33.030Z,77.46
2019-04-14T22:26:01.692Z,77.33
2019-04-14T22:28:30.574Z,77.22
2019-04-14T22:30:59.215Z,77.62
2019-04-14T22:33:27.840Z,77.83
2019-04-14T22:35:56.796Z,77.63
2019-04-14T22:38:25.658Z,77.93
2019-04-14T22:40:55.087Z,78.36
2019-04-14T22:43:23.749Z,78.33
2019-04-14T22:45:52.756Z,78.33
2019-04-14T22:48:21.725Z,78.59
2019-04-14T22:50:50.350Z,78.73
2019-04-14T22:53:19.258Z,78.92
2019-04-14T22:55:48.116Z,79.27
2019-04-14T22:58:17.093Z,79.67
2019-04-14T23:00:53.441Z,79.76
2019-04-14T23:03:50.696Z,79.82
2019-04-14T23:06:34.241Z,80.41
2019-04-14T23:09:25.584Z,80.45
2019-04-14T23:12:03.273Z,80.58
2019-04-14T23:14:38.939Z,80.49
2019-04-14T23:17:21.870Z,80.57
2019-04-14T23:19:56.214Z,80.92
2019-04-14T23:22:42.868Z,81.20
2019-04-14T23:25:11.825Z,81.65
2019-04-14T23:27:40.452Z,81.69
2019-04-14T23:30:09.735Z,81.58
2019-04-14T23:32:38.689Z,81.34
2019-04-14T23:35:07.731Z,81.78
2019-04-14T23:37:36.345Z,81.93
2019-04-14T23:40:05.502Z,81.77
2019-04-14T23:42:34.092Z,81.93
2019-04-14T23:45:02.717Z,82.25
2019-04-14T23:47:31.624Z,82.25
2019-04-14T23:50:00.879Z,82.45
2019-04-14T23:52:29.472Z,82.86
2019-04-14T23:54:58.333Z,82.83
2019-04-14T23:57:27.668Z,82.99
2019-04-14T23:59:56.685Z,82.89
